sensor_id;sensor_type;location;lat;lon;timestamp;pressure;altitude;pressure_sealevel;temperature;humidity
72359;BME280;60317;48.880;-0.862;2023-03-22T00:02:11;99780.69;;;18.92;46.96
72359;BME280;60317;48.880;-0.862;2023-03-22T00:04:40;99796.06;;;18.90;47.25
72359;BME280;60317;48.880;-0.862;2023-03-22T00:07:07;99780.81;;;18.90;46.97
72359;BME280;60317;48.880;-0.862;2023-03-22T00:09:33;99774.34;;;18.93;47.20
72359;BME280;60317;48.880;-0.862;2023-03-22T00:12:00;99778.56;;;18.95;47.09
72359;BME280;60317;48.880;-0.862;2023-03-22T00:14:26;99767.16;;;18.93;47.03
72359;BME280;60317;48.880;-0.862;2023-03-22T00:16:53;99764.75;;;18.90;47.02
72359;BME280;60317;48.880;-0.862;2023-03-22T00:19:19;99770.13;;;18.90;47.25
72359;BME280;60317;48.880;-0.862;2023-03-22T00:21:47;99752.38;;;18.89;47.23
72359;BME280;60317;48.880;-0.862;2023-03-22T00:24:13;99763.91;;;18.90;46.90
72359;BME280;60317;48.880;-0.862;2023-03-22T00:26:40;99764.19;;;18.87;47.20
72359;BME280;60317;48.880;-0.862;2023-03-22T00:29:06;99770.13;;;18.90;47.13
72359;BME280;60317;48.880;-0.862;2023-03-22T00:31:33;99753.50;;;18.87;47.17
72359;BME280;60317;48.880;-0.862;2023-03-22T00:33:59;99771.13;;;18.89;47.06
72359;BME280;60317;48.880;-0.862;2023-03-22T00:36:26;99758.00;;;18.86;47.07
72359;BME280;60317;48.880;-0.862;2023-03-22T00:38:54;99764.59;;;18.92;46.97
72359;BME280;60317;48.880;-0.862;2023-03-22T00:41:22;99751.38;;;18.90;47.33
72359;BME280;60317;48.880;-0.862;2023-03-22T00:43:49;99737.56;;;18.85;47.17
72359;BME280;60317;48.880;-0.862;2023-03-22T00:46:17;99747.13;;;18.88;47.28
72359;BME280;60317;48.880;-0.862;2023-03-22T00:48:45;99730.38;;;18.86;47.08
72359;BME280;60317;48.880;-0.862;2023-03-22T00:51:13;99729.53;;;18.85;47.19
72359;BME280;60317;48.880;-0.862;2023-03-22T00:53:40;99727.56;;;18.87;46.99
72359;BME280;60317;48.880;-0.862;2023-03-22T00:56:11;99720.25;;;18.89;47.19
72359;BME280;60317;48.880;-0.862;2023-03-22T00:58:37;99705.56;;;18.93;47.04
72359;BME280;60317;48.880;-0.862;2023-03-22T01:01:04;99697.25;;;18.87;47.01
72359;BME280;60317;48.880;-0.862;2023-03-22T01:03:31;99711.78;;;18.94;46.97
72359;BME280;60317;48.880;-0.862;2023-03-22T01:05:57;99695.44;;;18.87;47.12
72359;BME280;60317;48.880;-0.862;2023-03-22T01:08:24;99696.53;;;18.84;47.02
72359;BME280;60317;48.880;-0.862;2023-03-22T01:10:51;99690.91;;;18.88;46.71
72359;BME280;60317;48.880;-0.862;2023-03-22T01:13:18;99685.84;;;18.84;46.87
72359;BME280;60317;48.880;-0.862;2023-03-22T01:15:49;99674.28;;;18.84;47.08
72359;BME280;60317;48.880;-0.862;2023-03-22T01:18:15;99660.78;;;18.86;47.01
72359;BME280;60317;48.880;-0.862;2023-03-22T01:20:42;99672.59;;;18.83;47.16
72359;BME280;60317;48.880;-0.862;2023-03-22T01:23:08;99654.97;;;18.80;47.04
72359;BME280;60317;48.880;-0.862;2023-03-22T01:25:35;99650.78;;;18.78;47.21
72359;BME280;60317;48.880;-0.862;2023-03-22T01:28:01;99651.19;;;18.83;47.03
72359;BME280;60317;48.880;-0.862;2023-03-22T01:30:29;99651.47;;;18.80;47.30
72359;BME280;60317;48.880;-0.862;2023-03-22T01:32:56;99646.13;;;18.80;47.12
72359;BME280;60317;48.880;-0.862;2023-03-22T01:35:23;99651.19;;;18.83;47.23
72359;BME280;60317;48.880;-0.862;2023-03-22T01:37:49;99637.09;;;18.81;47.10
72359;BME280;60317;48.880;-0.862;2023-03-22T01:40:16;99640.63;;;18.81;47.08
72359;BME280;60317;48.880;-0.862;2023-03-22T01:42:43;99630.59;;;18.83;46.95
72359;BME280;60317;48.880;-0.862;2023-03-22T01:45:32;99618.06;;;18.84;46.97
72359;BME280;60317;48.880;-0.862;2023-03-22T01:48:01;99620.75;;;18.84;47.29
72359;BME280;60317;48.880;-0.862;2023-03-22T01:50:29;99615.66;;;18.81;47.16
72359;BME280;60317;48.880;-0.862;2023-03-22T01:52:56;99601.59;;;18.79;47.12
72359;BME280;60317;48.880;-0.862;2023-03-22T01:55:23;99591.19;;;18.76;47.17
72359;BME280;60317;48.880;-0.862;2023-03-22T01:57:51;99578.50;;;18.78;47.37
72359;BME280;60317;48.880;-0.862;2023-03-22T02:00:18;99583.84;;;18.78;47.20
72359;BME280;60317;48.880;-0.862;2023-03-22T02:02:48;99590.34;;;18.75;47.11
72359;BME280;60317;48.880;-0.862;2023-03-22T02:05:16;99583.97;;;18.76;47.21
72359;BME280;60317;48.880;-0.862;2023-03-22T02:07:43;99570.59;;;18.76;47.20
72359;BME280;60317;48.880;-0.862;2023-03-22T02:10:11;99571.44;;;18.77;47.00
72359;BME280;60317;48.880;-0.862;2023-03-22T02:12:44;99568.63;;;18.78;47.11
72359;BME280;60317;48.880;-0.862;2023-03-22T02:15:21;99567.09;;;18.76;47.25
72359;BME280;60317;48.880;-0.862;2023-03-22T02:17:59;99565.25;;;18.76;47.15
72359;BME280;60317;48.880;-0.862;2023-03-22T02:20:46;99572.44;;;18.76;47.26
72359;BME280;60317;48.880;-0.862;2023-03-22T02:23:36;99566.78;;;18.79;47.08
72359;BME280;60317;48.880;-0.862;2023-03-22T02:39:17;99542.44;;;18.72;47.29
72359;BME280;60317;48.880;-0.862;2023-03-22T02:41:57;99544.00;;;18.75;47.20
72359;BME280;60317;48.880;-0.862;2023-03-22T02:44:39;99539.47;;;18.75;47.08
72359;BME280;60317;48.880;-0.862;2023-03-22T02:47:08;99546.66;;;18.75;47.25
72359;BME280;60317;48.880;-0.862;2023-03-22T02:49:40;99538.75;;;18.73;47.29
72359;BME280;60317;48.880;-0.862;2023-03-22T02:52:14;99536.91;;;18.74;47.07
72359;BME280;60317;48.880;-0.862;2023-03-22T02:54:46;99537.19;;;18.80;47.01
72359;BME280;60317;48.880;-0.862;2023-03-22T02:57:19;99544.00;;;18.75;47.15
72359;BME280;60317;48.880;-0.862;2023-03-22T02:59:48;99545.94;;;18.73;47.30
72359;BME280;60317;48.880;-0.862;2023-03-22T03:02:16;99537.91;;;18.73;47.37
72359;BME280;60317;48.880;-0.862;2023-03-22T03:04:45;99544.13;;;18.73;47.30
72359;BME280;60317;48.880;-0.862;2023-03-22T03:07:14;99541.59;;;18.72;47.62
72359;BME280;60317;48.880;-0.862;2023-03-22T03:09:45;99535.13;;;18.74;47.34
72359;BME280;60317;48.880;-0.862;2023-03-22T03:12:13;99528.59;;;18.77;47.32
72359;BME280;60317;48.880;-0.862;2023-03-22T03:14:40;99529.88;;;18.73;47.48
72359;BME280;60317;48.880;-0.862;2023-03-22T03:17:13;99527.63;;;18.68;47.34
72359;BME280;60317;48.880;-0.862;2023-03-22T03:19:52;99524.94;;;18.68;47.57
72359;BME280;60317;48.880;-0.862;2023-03-22T03:22:31;99526.78;;;18.68;47.52
72359;BME280;60317;48.880;-0.862;2023-03-22T03:25:07;99515.75;;;18.71;47.39
72359;BME280;60317;48.880;-0.862;2023-03-22T03:27:42;99518.44;;;18.71;47.39
72359;BME280;60317;48.880;-0.862;2023-03-22T03:30:14;99520.19;;;18.72;47.27
72359;BME280;60317;48.880;-0.862;2023-03-22T03:32:43;99510.56;;;18.69;47.39
72359;BME280;60317;48.880;-0.862;2023-03-22T03:35:16;99512.16;;;18.72;47.65
72359;BME280;60317;48.880;-0.862;2023-03-22T03:37:47;99517.19;;;18.65;47.67
72359;BME280;60317;48.880;-0.862;2023-03-22T03:40:19;99504.38;;;18.69;47.58
72359;BME280;60317;48.880;-0.862;2023-03-22T03:42:50;99491.00;;;18.69;47.51
72359;BME280;60317;48.880;-0.862;2023-03-22T03:45:19;99503.28;;;18.71;47.66
72359;BME280;60317;48.880;-0.862;2023-03-22T03:47:47;99503.97;;;18.73;47.57
72359;BME280;60317;48.880;-0.862;2023-03-22T03:50:15;99505.22;;;18.69;47.51
72359;BME280;60317;48.880;-0.862;2023-03-22T03:52:42;99504.38;;;18.69;47.52
72359;BME280;60317;48.880;-0.862;2023-03-22T03:55:09;99501.69;;;18.69;47.51
72359;BME280;60317;48.880;-0.862;2023-03-22T03:57:36;99513.69;;;18.65;47.59
72359;BME280;60317;48.880;-0.862;2023-03-22T04:00:04;99511.84;;;18.65;47.77
72359;BME280;60317;48.880;-0.862;2023-03-22T04:02:31;99503.38;;;18.70;47.63
72359;BME280;60317;48.880;-0.862;2023-03-22T04:04:57;99495.34;;;18.79;47.28
72359;BME280;60317;48.880;-0.862;2023-03-22T04:07:24;99499.97;;;18.87;47.13
72359;BME280;60317;48.880;-0.862;2023-03-22T04:09:50;99500.69;;;18.89;47.17
72359;BME280;60317;48.880;-0.862;2023-03-22T04:12:17;99505.44;;;18.95;47.10
72359;BME280;60317;48.880;-0.862;2023-03-22T04:14:45;99510.63;;;19.06;46.87
72359;BME280;60317;48.880;-0.862;2023-03-22T04:17:11;99511.31;;;19.08;46.60
72359;BME280;60317;48.880;-0.862;2023-03-22T04:19:38;99514.81;;;19.09;46.77
72359;BME280;60317;48.880;-0.862;2023-03-22T04:22:04;99513.69;;;19.12;46.72
72359;BME280;60317;48.880;-0.862;2023-03-22T04:24:31;99512.41;;;19.16;46.62
72359;BME280;60317;48.880;-0.862;2023-03-22T04:26:57;99507.88;;;19.16;46.76
72359;BME280;60317;48.880;-0.862;2023-03-22T04:29:23;99506.75;;;19.19;46.69
72359;BME280;60317;48.880;-0.862;2023-03-22T04:31:51;99507.28;;;19.22;46.66
72359;BME280;60317;48.880;-0.862;2023-03-22T04:34:18;99501.41;;;19.19;46.74
72359;BME280;60317;48.880;-0.862;2023-03-22T04:36:44;99505.31;;;19.24;46.64
72359;BME280;60317;48.880;-0.862;2023-03-22T04:39:11;99504.31;;;19.25;46.70
72359;BME280;60317;48.880;-0.862;2023-03-22T04:41:38;99503.03;;;19.29;46.55
72359;BME280;60317;48.880;-0.862;2023-03-22T04:44:05;99503.19;;;19.28;46.63
72359;BME280;60317;48.880;-0.862;2023-03-22T04:46:33;99504.75;;;19.30;46.50
72359;BME280;60317;48.880;-0.862;2023-03-22T04:49:02;99501.91;;;19.32;46.66
72359;BME280;60317;48.880;-0.862;2023-03-22T04:51:29;99495.84;;;19.30;46.66
72359;BME280;60317;48.880;-0.862;2023-03-22T04:53:55;99490.47;;;19.30;46.53
72359;BME280;60317;48.880;-0.862;2023-03-22T04:56:23;99504.97;;;19.37;46.55
72359;BME280;60317;48.880;-0.862;2023-03-22T04:58:50;99495.50;;;19.43;46.40
72359;BME280;60317;48.880;-0.862;2023-03-22T05:01:17;99500.13;;;19.41;46.53
72359;BME280;60317;48.880;-0.862;2023-03-22T05:03:44;99499.59;;;19.37;46.43
72359;BME280;60317;48.880;-0.862;2023-03-22T05:06:12;99490.59;;;19.38;46.45
72359;BME280;60317;48.880;-0.862;2023-03-22T05:08:39;99495.78;;;19.40;46.52
72359;BME280;60317;48.880;-0.862;2023-03-22T05:11:07;99482.56;;;19.38;46.74
72359;BME280;60317;48.880;-0.862;2023-03-22T05:13:36;99487.44;;;19.43;46.44
72359;BME280;60317;48.880;-0.862;2023-03-22T05:16:04;99487.63;;;19.41;46.51
72359;BME280;60317;48.880;-0.862;2023-03-22T05:18:31;99487.28;;;19.44;46.40
72359;BME280;60317;48.880;-0.862;2023-03-22T05:20:59;99483.78;;;19.44;46.62
72359;BME280;60317;48.880;-0.862;2023-03-22T05:23:27;99483.34;;;19.48;46.47
72359;BME280;60317;48.880;-0.862;2023-03-22T05:25:54;99483.47;;;19.47;46.50
72359;BME280;60317;48.880;-0.862;2023-03-22T05:28:20;99469.94;;;19.48;46.56
72359;BME280;60317;48.880;-0.862;2023-03-22T05:30:47;99467.94;;;19.50;46.41
72359;BME280;60317;48.880;-0.862;2023-03-22T05:33:14;99467.94;;;19.50;46.36
72359;BME280;60317;48.880;-0.862;2023-03-22T05:35:41;99464.56;;;19.48;46.69
72359;BME280;60317;48.880;-0.862;2023-03-22T05:38:08;99463.28;;;19.52;46.35
72359;BME280;60317;48.880;-0.862;2023-03-22T05:40:36;99458.75;;;19.53;46.40
72359;BME280;60317;48.880;-0.862;2023-03-22T05:43:03;99450.41;;;19.56;46.35
72359;BME280;60317;48.880;-0.862;2023-03-22T05:45:30;99460.28;;;19.55;46.36
72359;BME280;60317;48.880;-0.862;2023-03-22T05:47:57;99452.94;;;19.58;46.37
72359;BME280;60317;48.880;-0.862;2023-03-22T05:50:23;99433.50;;;19.55;46.39
72359;BME280;60317;48.880;-0.862;2023-03-22T05:52:50;99445.72;;;19.58;46.42
72359;BME280;60317;48.880;-0.862;2023-03-22T05:55:17;99439.22;;;19.61;46.42
72359;BME280;60317;48.880;-0.862;2023-03-22T05:57:45;99435.88;;;19.59;46.36
72359;BME280;60317;48.880;-0.862;2023-03-22T06:00:14;99435.53;;;19.62;46.45
72359;BME280;60317;48.880;-0.862;2023-03-22T06:02:41;99442.66;;;19.63;46.36
72359;BME280;60317;48.880;-0.862;2023-03-22T06:05:09;99434.16;;;19.58;46.37
72359;BME280;60317;48.880;-0.862;2023-03-22T06:07:36;99439.09;;;19.62;46.43
72359;BME280;60317;48.880;-0.862;2023-03-22T06:10:03;99436.72;;;19.59;46.47
72359;BME280;60317;48.880;-0.862;2023-03-22T06:12:30;99429.34;;;19.61;46.40
72359;BME280;60317;48.880;-0.862;2023-03-22T06:14:58;99430.19;;;19.62;46.49
72359;BME280;60317;48.880;-0.862;2023-03-22T06:17:26;99430.06;;;19.63;46.45
72359;BME280;60317;48.880;-0.862;2023-03-22T06:19:52;99435.66;;;19.70;46.21
72359;BME280;60317;48.880;-0.862;2023-03-22T06:22:20;99430.91;;;19.64;46.23
72359;BME280;60317;48.880;-0.862;2023-03-22T06:24:47;99423.25;;;19.69;46.41
72359;BME280;60317;48.880;-0.862;2023-03-22T06:27:14;99416.91;;;19.70;46.41
72359;BME280;60317;48.880;-0.862;2023-03-22T06:29:41;99425.38;;;19.65;46.45
72359;BME280;60317;48.880;-0.862;2023-03-22T06:32:09;99420.56;;;19.69;46.34
72359;BME280;60317;48.880;-0.862;2023-03-22T06:34:36;99416.44;;;19.74;46.21
72359;BME280;60317;48.880;-0.862;2023-03-22T06:37:02;99417.75;;;19.70;46.35
72359;BME280;60317;48.880;-0.862;2023-03-22T06:39:29;99421.09;;;19.72;46.20
72359;BME280;60317;48.880;-0.862;2023-03-22T06:41:56;99429.50;;;19.60;46.74
72359;BME280;60317;48.880;-0.862;2023-03-22T06:44:22;99429.47;;;19.69;46.64
72359;BME280;60317;48.880;-0.862;2023-03-22T06:46:49;99434.97;;;19.68;46.55
72359;BME280;60317;48.880;-0.862;2023-03-22T06:49:16;99429.59;;;19.68;46.56
72359;BME280;60317;48.880;-0.862;2023-03-22T06:51:43;99431.28;;;19.69;46.65
72359;BME280;60317;48.880;-0.862;2023-03-22T06:54:10;99419.72;;;19.68;46.63
72359;BME280;60317;48.880;-0.862;2023-03-22T06:56:36;99425.09;;;19.68;46.66
72359;BME280;60317;48.880;-0.862;2023-03-22T06:59:03;99446.22;;;19.71;46.58
72359;BME280;60317;48.880;-0.862;2023-03-22T07:01:29;99441.56;;;19.73;46.52
72359;BME280;60317;48.880;-0.862;2023-03-22T07:03:56;99426.16;;;19.75;46.83
72359;BME280;60317;48.880;-0.862;2023-03-22T07:06:24;99419.41;;;19.71;46.62
72359;BME280;60317;48.880;-0.862;2023-03-22T07:08:51;99421.09;;;19.72;46.66
72359;BME280;60317;48.880;-0.862;2023-03-22T07:11:18;99417.56;;;19.72;46.67
72359;BME280;60317;48.880;-0.862;2023-03-22T07:13:45;99447.31;;;19.78;46.55
72359;BME280;60317;48.880;-0.862;2023-03-22T07:16:11;99442.34;;;19.66;46.90
72359;BME280;60317;48.880;-0.862;2023-03-22T07:18:38;99442.44;;;19.46;48.88
72359;BME280;60317;48.880;-0.862;2023-03-22T07:21:05;99445.56;;;19.24;50.02
72359;BME280;60317;48.880;-0.862;2023-03-22T07:23:33;99447.03;;;19.08;51.07
72359;BME280;60317;48.880;-0.862;2023-03-22T07:25:59;99439.00;;;19.08;51.84
72359;BME280;60317;48.880;-0.862;2023-03-22T07:28:26;99450.16;;;19.04;52.10
72359;BME280;60317;48.880;-0.862;2023-03-22T07:30:59;99445.00;;;18.93;52.34
72359;BME280;60317;48.880;-0.862;2023-03-22T07:33:25;99441.16;;;18.95;52.25
72359;BME280;60317;48.880;-0.862;2023-03-22T07:35:52;99436.69;;;18.96;52.04
72359;BME280;60317;48.880;-0.862;2023-03-22T07:38:19;99433.59;;;18.91;51.76
72359;BME280;60317;48.880;-0.862;2023-03-22T07:40:46;99441.72;;;18.99;51.81
72359;BME280;60317;48.880;-0.862;2023-03-22T07:43:13;99438.69;;;19.12;51.61
72359;BME280;60317;48.880;-0.862;2023-03-22T07:45:39;99436.59;;;19.05;51.53
72359;BME280;60317;48.880;-0.862;2023-03-22T07:48:07;99450.94;;;18.87;52.05
72359;BME280;60317;48.880;-0.862;2023-03-22T07:50:34;99447.97;;;18.90;51.94
72359;BME280;60317;48.880;-0.862;2023-03-22T07:53:00;99448.81;;;18.90;52.16
72359;BME280;60317;48.880;-0.862;2023-03-22T07:55:27;99444.59;;;18.88;51.99
72359;BME280;60317;48.880;-0.862;2023-03-22T07:57:55;99453.22;;;18.81;51.99
72359;BME280;60317;48.880;-0.862;2023-03-22T08:00:22;99458.47;;;18.73;52.33
72359;BME280;60317;48.880;-0.862;2023-03-22T08:02:48;99461.09;;;18.83;52.28
72359;BME280;60317;48.880;-0.862;2023-03-22T08:05:15;99459.81;;;18.87;52.19
72359;BME280;60317;48.880;-0.862;2023-03-22T08:07:41;99462.59;;;18.95;52.34
72359;BME280;60317;48.880;-0.862;2023-03-22T08:10:08;99456.75;;;18.82;52.69
72359;BME280;60317;48.880;-0.862;2023-03-22T08:12:37;99457.56;;;18.92;52.27
72359;BME280;60317;48.880;-0.862;2023-03-22T08:15:06;99450.22;;;18.84;52.36
72359;BME280;60317;48.880;-0.862;2023-03-22T08:17:33;99448.84;;;18.80;52.35
72359;BME280;60317;48.880;-0.862;2023-03-22T08:19:59;99451.28;;;19.01;52.44
72359;BME280;60317;48.880;-0.862;2023-03-22T08:22:26;99464.09;;;19.07;53.84
72359;BME280;60317;48.880;-0.862;2023-03-22T08:24:52;99451.16;;;19.03;54.56
72359;BME280;60317;48.880;-0.862;2023-03-22T08:27:20;99443.84;;;18.95;54.55
72359;BME280;60317;48.880;-0.862;2023-03-22T08:29:47;99450.75;;;18.98;54.20
72359;BME280;60317;48.880;-0.862;2023-03-22T08:32:15;99452.00;;;19.03;53.80
72359;BME280;60317;48.880;-0.862;2023-03-22T08:34:43;99444.16;;;18.92;54.20
72359;BME280;60317;48.880;-0.862;2023-03-22T08:37:10;99434.34;;;18.83;54.40
72359;BME280;60317;48.880;-0.862;2023-03-22T08:39:37;99429.44;;;18.78;54.48
72359;BME280;60317;48.880;-0.862;2023-03-22T08:42:03;99440.28;;;18.77;54.30
72359;BME280;60317;48.880;-0.862;2023-03-22T08:44:30;99437.31;;;18.80;54.31
72359;BME280;60317;48.880;-0.862;2023-03-22T08:46:57;99436.16;;;18.82;53.88
72359;BME280;60317;48.880;-0.862;2023-03-22T08:49:25;99423.25;;;18.78;53.98
72359;BME280;60317;48.880;-0.862;2023-03-22T08:51:51;99424.63;;;18.82;53.90
72359;BME280;60317;48.880;-0.862;2023-03-22T08:54:18;99427.69;;;18.87;53.64
72359;BME280;60317;48.880;-0.862;2023-03-22T08:56:44;99423.44;;;18.94;53.38
72359;BME280;60317;48.880;-0.862;2023-03-22T08:59:11;99417.81;;;18.88;53.42
72359;BME280;60317;48.880;-0.862;2023-03-22T09:01:37;99423.38;;;18.76;53.71
72359;BME280;60317;48.880;-0.862;2023-03-22T09:04:04;99426.31;;;18.83;53.87
72359;BME280;60317;48.880;-0.862;2023-03-22T09:06:32;99424.31;;;19.13;53.04
72359;BME280;60317;48.880;-0.862;2023-03-22T09:08:59;99431.06;;;19.17;52.81
72359;BME280;60317;48.880;-0.862;2023-03-22T09:11:26;99433.00;;;19.24;53.32
72359;BME280;60317;48.880;-0.862;2023-03-22T09:13:53;99425.72;;;19.17;53.48
72359;BME280;60317;48.880;-0.862;2023-03-22T09:16:19;99436.19;;;19.10;53.18
72359;BME280;60317;48.880;-0.862;2023-03-22T09:18:46;99437.75;;;19.30;53.64
72359;BME280;60317;48.880;-0.862;2023-03-22T09:21:12;99431.13;;;19.52;53.19
72359;BME280;60317;48.880;-0.862;2023-03-22T09:23:40;99434.97;;;19.86;52.01
72359;BME280;60317;48.880;-0.862;2023-03-22T09:26:08;99432.56;;;20.00;51.42
72359;BME280;60317;48.880;-0.862;2023-03-22T09:28:34;99445.44;;;19.97;51.30
72359;BME280;60317;48.880;-0.862;2023-03-22T09:31:03;99431.13;;;20.06;51.10
72359;BME280;60317;48.880;-0.862;2023-03-22T09:33:30;99432.13;;;20.05;51.03
72359;BME280;60317;48.880;-0.862;2023-03-22T09:35:56;99427.94;;;20.11;51.02
72359;BME280;60317;48.880;-0.862;2023-03-22T09:38:23;99421.56;;;20.30;50.74
72359;BME280;60317;48.880;-0.862;2023-03-22T09:40:54;99430.72;;;20.19;51.01
72359;BME280;60317;48.880;-0.862;2023-03-22T09:43:21;99423.19;;;20.22;50.72
72359;BME280;60317;48.880;-0.862;2023-03-22T09:45:49;99434.06;;;20.21;50.36
72359;BME280;60317;48.880;-0.862;2023-03-22T09:48:18;99421.97;;;20.17;50.44
72359;BME280;60317;48.880;-0.862;2023-03-22T09:50:48;99427.72;;;20.04;50.74
72359;BME280;60317;48.880;-0.862;2023-03-22T09:53:16;99431.72;;;20.00;51.13
72359;BME280;60317;48.880;-0.862;2023-03-22T09:55:46;99434.34;;;19.92;51.19
72359;BME280;60317;48.880;-0.862;2023-03-22T09:58:23;99436.56;;;19.96;50.97
72359;BME280;60317;48.880;-0.862;2023-03-22T10:00:55;99422.47;;;19.94;51.04
72359;BME280;60317;48.880;-0.862;2023-03-22T10:03:36;99429.22;;;19.98;51.00
72359;BME280;60317;48.880;-0.862;2023-03-22T10:06:14;99421.53;;;20.03;50.66
72359;BME280;60317;48.880;-0.862;2023-03-22T10:08:50;99422.31;;;19.96;50.95
72359;BME280;60317;48.880;-0.862;2023-03-22T10:11:26;99426.97;;;20.12;50.48
72359;BME280;60317;48.880;-0.862;2023-03-22T10:14:03;99423.53;;;20.01;50.81
72359;BME280;60317;48.880;-0.862;2023-03-22T10:16:34;99419.56;;;19.88;51.01
72359;BME280;60317;48.880;-0.862;2023-03-22T10:19:07;99432.22;;;19.77;51.18
72359;BME280;60317;48.880;-0.862;2023-03-22T10:21:40;99416.69;;;19.36;52.48
72359;BME280;60317;48.880;-0.862;2023-03-22T10:24:15;99421.81;;;19.29;52.91
72359;BME280;60317;48.880;-0.862;2023-03-22T10:26:45;99420.09;;;19.38;53.05
72359;BME280;60317;48.880;-0.862;2023-03-22T10:29:20;99418.34;;;19.64;53.07
72359;BME280;60317;48.880;-0.862;2023-03-22T10:31:47;99402.50;;;19.71;53.09
72359;BME280;60317;48.880;-0.862;2023-03-22T10:34:19;99404.50;;;20.13;51.32
72359;BME280;60317;48.880;-0.862;2023-03-22T10:36:46;99408.59;;;20.25;51.08
72359;BME280;60317;48.880;-0.862;2023-03-22T10:39:26;99409.13;;;20.29;50.78
72359;BME280;60317;48.880;-0.862;2023-03-22T10:41:55;99408.69;;;20.33;50.47
72359;BME280;60317;48.880;-0.862;2023-03-22T10:44:27;99415.53;;;20.36;50.38
72359;BME280;60317;48.880;-0.862;2023-03-22T10:46:55;99412.63;;;20.47;50.13
72359;BME280;60317;48.880;-0.862;2023-03-22T10:49:28;99408.22;;;20.46;50.06
72359;BME280;60317;48.880;-0.862;2023-03-22T10:52:01;99416.13;;;20.21;50.66
72359;BME280;60317;48.880;-0.862;2023-03-22T10:54:29;99414.00;;;19.63;52.42
72359;BME280;60317;48.880;-0.862;2023-03-22T10:56:56;99397.19;;;19.43;52.90
72359;BME280;60317;48.880;-0.862;2023-03-22T10:59:42;99400.63;;;19.36;53.09
72359;BME280;60317;48.880;-0.862;2023-03-22T11:02:17;99389.84;;;19.81;51.99
72359;BME280;60317;48.880;-0.862;2023-03-22T11:04:47;99388.59;;;20.11;50.81
72359;BME280;60317;48.880;-0.862;2023-03-22T11:07:26;99375.25;;;20.27;50.37
72359;BME280;60317;48.880;-0.862;2023-03-22T11:10:16;99380.53;;;20.37;49.99
72359;BME280;60317;48.880;-0.862;2023-03-22T11:12:48;99380.22;;;20.40;49.73
72359;BME280;60317;48.880;-0.862;2023-03-22T11:15:23;99393.31;;;20.43;49.95
72359;BME280;60317;48.880;-0.862;2023-03-22T11:17:50;99383.19;;;20.37;49.70
72359;BME280;60317;48.880;-0.862;2023-03-22T11:20:19;99390.63;;;20.43;49.61
72359;BME280;60317;48.880;-0.862;2023-03-22T11:22:46;99384.75;;;20.40;49.66
72359;BME280;60317;48.880;-0.862;2023-03-22T11:25:17;99390.97;;;20.48;49.22
72359;BME280;60317;48.880;-0.862;2023-03-22T11:27:50;99384.75;;;20.40;49.66
72359;BME280;60317;48.880;-0.862;2023-03-22T11:30:22;99382.63;;;20.25;50.57
72359;BME280;60317;48.880;-0.862;2023-03-22T11:32:59;99384.09;;;19.76;53.14
72359;BME280;60317;48.880;-0.862;2023-03-22T11:35:29;99386.41;;;19.53;54.24
72359;BME280;60317;48.880;-0.862;2023-03-22T11:37:56;99383.66;;;19.45;54.73
72359;BME280;60317;48.880;-0.862;2023-03-22T11:40:24;99391.28;;;19.40;55.28
72359;BME280;60317;48.880;-0.862;2023-03-22T11:42:53;99382.56;;;19.38;55.67
72359;BME280;60317;48.880;-0.862;2023-03-22T11:45:24;99369.84;;;19.58;54.75
72359;BME280;60317;48.880;-0.862;2023-03-22T11:47:53;99374.91;;;19.78;54.19
72359;BME280;60317;48.880;-0.862;2023-03-22T11:50:26;99377.50;;;19.88;53.89
72359;BME280;60317;48.880;-0.862;2023-03-22T11:52:53;99360.31;;;19.73;54.07
72359;BME280;60317;48.880;-0.862;2023-03-22T11:55:20;99377.16;;;19.83;53.75
72359;BME280;60317;48.880;-0.862;2023-03-22T11:57:46;99369.47;;;20.14;52.61
72359;BME280;60317;48.880;-0.862;2023-03-22T12:00:17;99379.56;;;20.20;52.35
72359;BME280;60317;48.880;-0.862;2023-03-22T12:02:49;99385.69;;;20.31;51.87
72359;BME280;60317;48.880;-0.862;2023-03-22T12:05:19;99370.19;;;20.24;51.85
72359;BME280;60317;48.880;-0.862;2023-03-22T12:07:50;99394.22;;;19.64;53.51
72359;BME280;60317;48.880;-0.862;2023-03-22T12:10:23;99383.41;;;19.38;54.04
72359;BME280;60317;48.880;-0.862;2023-03-22T12:12:53;99382.47;;;19.29;54.47
72359;BME280;60317;48.880;-0.862;2023-03-22T12:15:23;99386.75;;;19.22;54.55
72359;BME280;60317;48.880;-0.862;2023-03-22T12:17:55;99385.44;;;19.26;54.22
72359;BME280;60317;48.880;-0.862;2023-03-22T12:20:32;99384.91;;;19.23;54.25
72359;BME280;60317;48.880;-0.862;2023-03-22T12:23:01;99385.75;;;19.23;54.18
72359;BME280;60317;48.880;-0.862;2023-03-22T12:25:35;99392.41;;;19.19;54.16
72359;BME280;60317;48.880;-0.862;2023-03-22T12:28:05;99386.00;;;19.30;54.19
72359;BME280;60317;48.880;-0.862;2023-03-22T12:30:38;99390.28;;;19.23;54.22
72359;BME280;60317;48.880;-0.862;2023-03-22T12:33:14;99380.97;;;19.27;54.28
72359;BME280;60317;48.880;-0.862;2023-03-22T12:35:43;99374.59;;;19.28;54.31
72359;BME280;60317;48.880;-0.862;2023-03-22T12:38:21;99367.34;;;19.38;54.04
72359;BME280;60317;48.880;-0.862;2023-03-22T12:40:50;99376.50;;;19.36;54.13
72359;BME280;60317;48.880;-0.862;2023-03-22T12:43:23;99386.63;;;19.24;54.54
72359;BME280;60317;48.880;-0.862;2023-03-22T12:45:57;99369.78;;;19.14;54.86
72359;BME280;60317;48.880;-0.862;2023-03-22T12:48:31;99371.44;;;19.15;54.83
72359;BME280;60317;48.880;-0.862;2023-03-22T12:51:03;99371.91;;;19.10;55.18
72359;BME280;60317;48.880;-0.862;2023-03-22T12:53:33;99367.38;;;19.11;55.15
72359;BME280;60317;48.880;-0.862;2023-03-22T12:56:01;99371.38;;;19.06;55.34
72359;BME280;60317;48.880;-0.862;2023-03-22T12:58:28;99359.06;;;19.14;55.23
72359;BME280;60317;48.880;-0.862;2023-03-22T13:00:56;99357.06;;;19.16;55.15
72359;BME280;60317;48.880;-0.862;2023-03-22T13:03:27;99351.56;;;19.17;55.52
72359;BME280;60317;48.880;-0.862;2023-03-22T13:06:01;99357.44;;;19.21;55.36
72359;BME280;60317;48.880;-0.862;2023-03-22T13:11:22;99351.41;;;19.19;55.35
72359;BME280;60317;48.880;-0.862;2023-03-22T13:13:49;99337.88;;;19.20;55.54
72359;BME280;60317;48.880;-0.862;2023-03-22T13:16:19;99327.69;;;19.24;55.48